Binghamton, New York
Current Conditions -  °F | °C
As of 9:53 PM on Saturday 27 Dec 2014 (Local Time) from KBGM Reporting Station
Overcast Overcast  
Wind Chill:   Ceiling: 10000
Heat Index:   Visibility: 10mi
Dew Point:   Wind: 9mph
Humidity: 63%   Direction: 190°S
Pressure: 29.98"   Gusts: NA
Location:  42.1°N, 75.91°W
Report Text: KBGM 280253Z 19008KT 10SM FEW039 SCT075 OVC100 08/01 A2998 RMK AO2 SLP162 T00780011 58019
Loading
Personal Weather Stations






























Interactive Weather Map New forecast layout! Learn more

10-Day Weather Forecast

Advertisements
Track Severe Weather on mobile